Time;durP1;ratioP1;P1;durP2;ratioP2;P2;SDS_P1;SDS_P2;PMS_P1;PMS_P2;Temp;Humidity;BMP_temperature;BMP_pressure;BME280_temperature;BME280_humidity;BME280_pressure;Samples;Min_cycle;Max_cycle;Signal;HPM_P1;HPM_P2
2022/07/16 00:01:23;;;;;;;5.97;1.50;;;12.80;99.90;;;;;;4969744;28;20027;-57
2022/07/16 00:04:00;;;;;;;6.20;1.40;;;12.70;99.90;;;;;;4965059;28;20473;-59
2022/07/16 00:06:28;;;;;;;6.80;1.30;;;12.80;99.90;;;;;;4969273;28;20030;-58
2022/07/16 00:08:54;;;;;;;3.70;1.20;;;12.70;99.90;;;;;;4969892;28;20027;-58
2022/07/16 00:11:21;;;;;;;4.68;1.38;;;12.70;99.90;;;;;;4969243;28;20027;-59
2022/07/16 00:13:47;;;;;;;4.20;1.40;;;12.70;99.90;;;;;;4969260;28;20027;-59
2022/07/16 00:16:13;;;;;;;3.75;1.10;;;12.70;99.90;;;;;;4970122;28;20511;-59
2022/07/16 00:21:24;;;;;;;9.85;1.65;;;12.60;99.90;;;;;;4969941;28;20108;-60
2022/07/16 00:23:50;;;;;;;3.67;1.33;;;12.50;99.90;;;;;;4969317;28;20057;-59
2022/07/16 00:26:16;;;;;;;3.67;1.50;;;12.50;99.90;;;;;;4969590;28;20031;-59
2022/07/16 00:28:42;;;;;;;2.30;1.50;;;12.50;99.90;;;;;;4969598;28;20122;-58
2022/07/16 00:31:07;;;;;;;3.92;1.20;;;12.40;99.90;;;;;;4969543;28;20085;-56
2022/07/16 00:33:33;;;;;;;5.68;1.60;;;12.40;99.90;;;;;;4979202;28;20054;-55
2022/07/16 00:35:58;;;;;;;4.40;1.50;;;12.40;99.90;;;;;;4970103;28;20516;-56
2022/07/16 00:38:24;;;;;;;4.40;1.10;;;12.40;99.90;;;;;;4966501;28;20409;-59
2022/07/16 00:40:50;;;;;;;7.30;1.40;;;12.40;99.90;;;;;;4971111;28;20437;-57
2022/07/16 00:43:15;;;;;;;2.28;1.00;;;12.40;99.90;;;;;;4970469;28;20030;-60
2022/07/16 00:45:41;;;;;;;6.30;1.30;;;12.30;99.90;;;;;;4969331;28;20031;-57
2022/07/16 00:48:08;;;;;;;11.00;1.85;;;12.30;99.90;;;;;;4965896;28;20034;-59
2022/07/16 00:50:36;;;;;;;2.67;1.77;;;12.30;99.90;;;;;;4966192;28;20026;-60
2022/07/16 00:53:03;;;;;;;6.05;1.40;;;12.30;99.90;;;;;;4969692;28;20022;-55
2022/07/16 00:55:29;;;;;;;4.03;1.35;;;12.30;99.90;;;;;;4970253;28;20027;-58
2022/07/16 00:57:56;;;;;;;8.35;1.90;;;12.30;99.90;;;;;;4970035;28;20066;-59
2022/07/16 01:00:22;;;;;;;5.07;1.05;;;12.30;99.90;;;;;;4971719;28;20027;-57
2022/07/16 01:02:49;;;;;;;4.85;1.27;;;12.30;99.90;;;;;;4973521;28;20030;-57
2022/07/16 01:05:15;;;;;;;6.22;1.52;;;12.30;99.90;;;;;;4973718;28;20031;-60
2022/07/16 01:07:43;;;;;;;3.15;1.65;;;12.30;99.90;;;;;;4973143;28;20031;-57
2022/07/16 01:10:09;;;;;;;5.28;1.60;;;12.20;99.90;;;;;;4973741;28;20030;-61
2022/07/16 01:12:35;;;;;;;4.63;1.50;;;12.20;99.90;;;;;;4973580;28;20049;-57
2022/07/16 01:15:01;;;;;;;4.80;1.77;;;12.20;99.90;;;;;;4974201;28;20046;-59
2022/07/16 01:17:27;;;;;;;4.97;1.85;;;12.20;99.90;;;;;;4956496;28;20033;-59
2022/07/16 01:19:53;;;;;;;8.63;1.83;;;12.10;99.90;;;;;;4973896;28;20027;-58
2022/07/16 01:22:20;;;;;;;3.20;1.52;;;12.10;99.90;;;;;;4973627;28;20034;-58
2022/07/16 01:24:47;;;;;;;6.28;1.52;;;12.10;99.90;;;;;;4971126;28;20035;-59
2022/07/16 01:27:13;;;;;;;8.52;1.67;;;12.10;99.90;;;;;;4973867;28;20027;-58
2022/07/16 01:29:38;;;;;;;8.63;1.30;;;12.10;99.90;;;;;;4974911;28;20034;-57
2022/07/16 01:32:05;;;;;;;6.47;1.60;;;12.10;99.90;;;;;;4973770;28;20027;-58
2022/07/16 01:34:31;;;;;;;4.05;1.30;;;12.10;99.90;;;;;;4972298;28;20042;-57
2022/07/16 01:37:01;;;;;;;3.90;1.50;;;12.10;99.90;;;;;;4973911;28;20523;-57
2022/07/16 01:39:28;;;;;;;3.33;1.40;;;12.00;99.90;;;;;;4974642;28;20550;-57
2022/07/16 01:41:59;;;;;;;4.53;1.52;;;12.00;99.90;;;;;;4973216;28;20113;-58
2022/07/16 01:44:27;;;;;;;4.28;1.45;;;11.90;99.90;;;;;;4972968;28;20035;-56
2022/07/16 01:46:53;;;;;;;5.15;1.25;;;11.90;99.90;;;;;;4973540;28;20055;-58
2022/07/16 01:49:19;;;;;;;4.88;1.77;;;11.80;99.90;;;;;;4974375;28;20027;-60
2022/07/16 01:51:45;;;;;;;3.70;1.48;;;11.80;99.90;;;;;;4973362;28;20029;-58
2022/07/16 01:54:10;;;;;;;1.98;1.20;;;11.80;99.90;;;;;;4973049;28;20023;-59
2022/07/16 01:56:36;;;;;;;6.57;1.70;;;11.80;99.90;;;;;;4972850;28;20054;-58
2022/07/16 01:59:03;;;;;;;4.88;1.48;;;11.80;99.90;;;;;;4973088;28;20121;-59
2022/07/16 02:01:28;;;;;;;4.72;1.42;;;11.80;99.90;;;;;;4972285;28;20055;-59
2022/07/16 02:03:54;;;;;;;4.00;1.45;;;11.90;99.90;;;;;;4973642;28;20018;-58
2022/07/16 02:06:20;;;;;;;4.68;1.67;;;11.90;99.90;;;;;;4972618;28;20045;-59
2022/07/16 02:08:45;;;;;;;5.63;1.38;;;11.80;99.90;;;;;;4974102;28;20027;-58
2022/07/16 02:11:11;;;;;;;3.00;1.35;;;11.80;99.90;;;;;;4972029;28;20084;-58
2022/07/16 02:13:37;;;;;;;1.98;1.00;;;11.80;99.90;;;;;;4973667;28;20038;-60
2022/07/16 02:16:03;;;;;;;4.32;1.92;;;11.70;99.90;;;;;;4972681;28;20408;-58
2022/07/16 02:18:28;;;;;;;5.38;1.38;;;11.70;99.90;;;;;;4969660;28;20070;-59
2022/07/16 02:20:54;;;;;;;6.10;1.60;;;11.70;99.90;;;;;;4971706;28;20041;-57
2022/07/16 02:23:20;;;;;;;7.50;1.60;;;11.70;99.90;;;;;;4972215;28;20031;-59
2022/07/16 02:25:45;;;;;;;10.70;1.83;;;11.70;99.90;;;;;;4972721;28;20569;-57
2022/07/16 02:28:11;;;;;;;10.57;3.58;;;11.60;99.90;;;;;;4965629;28;20034;-56
2022/07/16 02:30:46;;;;;;;4.35;1.50;;;11.60;99.90;;;;;;4971786;28;20501;-59
2022/07/16 02:33:15;;;;;;;5.82;1.40;;;11.60;99.90;;;;;;4971108;28;20054;-59
2022/07/16 02:35:41;;;;;;;5.50;1.40;;;11.60;99.90;;;;;;4972175;28;20765;-59
2022/07/16 02:38:07;;;;;;;3.05;1.35;;;11.60;99.90;;;;;;4973601;28;20431;-59
2022/07/16 02:40:34;;;;;;;4.47;1.63;;;11.70;99.90;;;;;;4973639;28;20031;-59
2022/07/16 02:43:02;;;;;;;2.30;1.58;;;11.70;99.90;;;;;;4973549;28;20039;-59
2022/07/16 02:45:28;;;;;;;2.70;1.77;;;11.70;99.90;;;;;;4973031;28;20031;-56
2022/07/16 02:47:54;;;;;;;4.13;1.50;;;11.80;99.90;;;;;;4973542;28;20023;-57
2022/07/16 02:50:20;;;;;;;3.80;1.40;;;11.80;99.90;;;;;;4972979;28;20031;-58
2022/07/16 02:52:46;;;;;;;4.93;1.45;;;11.90;99.90;;;;;;4972426;28;20592;-58
2022/07/16 02:55:11;;;;;;;2.75;1.20;;;11.90;99.90;;;;;;4972231;28;20413;-56
2022/07/16 02:57:37;;;;;;;4.53;1.40;;;11.90;99.90;;;;;;4970469;28;20492;-58
2022/07/16 03:00:06;;;;;;;7.85;1.70;;;12.00;99.90;;;;;;4968013;28;20026;-60
2022/07/16 03:02:31;;;;;;;5.22;2.10;;;11.90;99.90;;;;;;4972129;28;20117;-58
2022/07/16 03:04:57;;;;;;;6.20;1.80;;;12.00;99.90;;;;;;4972795;28;20070;-58
2022/07/16 03:07:23;;;;;;;4.72;1.52;;;12.00;99.90;;;;;;4971713;28;20073;-59
2022/07/16 03:09:48;;;;;;;5.75;1.38;;;12.00;99.90;;;;;;4971043;28;20023;-60
2022/07/16 03:12:14;;;;;;;3.13;1.42;;;12.00;99.90;;;;;;4972768;28;20031;-58
2022/07/16 03:14:39;;;;;;;3.10;1.60;;;12.10;99.90;;;;;;4970766;28;20070;-60
2022/07/16 03:17:05;;;;;;;9.43;1.65;;;12.10;99.90;;;;;;4973114;28;20023;-59
2022/07/16 03:19:30;;;;;;;7.57;1.55;;;12.20;99.90;;;;;;4971330;28;20031;-60
2022/07/16 03:21:56;;;;;;;7.70;2.25;;;12.20;99.90;;;;;;4972164;28;20027;-57
2022/07/16 03:24:22;;;;;;;5.47;1.67;;;12.20;99.90;;;;;;4971380;28;20038;-55
2022/07/16 03:26:47;;;;;;;3.45;1.20;;;12.20;99.90;;;;;;4966647;28;20020;-61
2022/07/16 03:29:13;;;;;;;3.05;1.55;;;12.20;99.90;;;;;;4968431;28;20033;-57
2022/07/16 03:31:38;;;;;;;9.88;1.80;;;12.20;99.90;;;;;;4969600;28;20105;-59
2022/07/16 03:34:04;;;;;;;3.40;1.52;;;12.20;99.90;;;;;;4972492;28;20026;-59
2022/07/16 03:36:29;;;;;;;7.13;1.50;;;12.20;99.90;;;;;;4970481;28;20567;-60
2022/07/16 03:39:03;;;;;;;6.95;1.45;;;12.20;99.90;;;;;;4972112;28;20031;-59
2022/07/16 03:41:31;;;;;;;7.75;1.70;;;12.30;99.90;;;;;;4969696;28;20493;-55
2022/07/16 03:43:57;;;;;;;4.03;1.40;;;12.40;99.90;;;;;;4971355;28;20034;-58
2022/07/16 03:46:23;;;;;;;3.63;1.73;;;12.40;99.90;;;;;;4971212;28;20027;-60
2022/07/16 03:48:48;;;;;;;4.38;1.60;;;12.40;99.90;;;;;;4972143;28;20025;-60
2022/07/16 03:51:14;;;;;;;4.13;2.13;;;12.50;99.90;;;;;;4972534;28;20035;-59
2022/07/16 03:53:40;;;;;;;1.88;1.13;;;12.50;99.90;;;;;;4971077;28;20109;-57
2022/07/16 03:56:06;;;;;;;12.20;2.75;;;12.50;99.90;;;;;;4970891;28;20149;-60
2022/07/16 03:58:32;;;;;;;2.78;1.50;;;12.50;99.90;;;;;;4969043;28;20042;-60
2022/07/16 04:00:57;;;;;;;3.53;1.50;;;12.50;99.90;;;;;;4970120;28;20034;-60
2022/07/16 04:03:24;;;;;;;3.78;1.42;;;12.50;99.90;;;;;;4968905;28;20090;-59
2022/07/16 04:05:50;;;;;;;3.90;1.45;;;12.50;99.90;;;;;;4970375;28;20441;-60
2022/07/16 04:08:17;;;;;;;4.65;1.17;;;12.50;99.90;;;;;;4971484;28;20444;-61
2022/07/16 04:10:42;;;;;;;6.32;1.40;;;12.60;99.90;;;;;;4968930;28;20481;-60
2022/07/16 04:13:08;;;;;;;5.07;1.30;;;12.60;99.90;;;;;;4970043;28;20042;-60
2022/07/16 04:15:34;;;;;;;5.20;1.30;;;12.60;99.90;;;;;;4970230;28;20031;-60
2022/07/16 04:18:00;;;;;;;1.98;1.17;;;12.70;99.90;;;;;;4970014;28;20035;-61
2022/07/16 04:20:25;;;;;;;5.03;1.15;;;12.70;99.90;;;;;;4970866;28;20126;-60
2022/07/16 04:22:51;;;;;;;4.10;1.15;;;12.70;99.90;;;;;;4970960;28;20118;-60
2022/07/16 04:25:17;;;;;;;3.20;1.38;;;12.70;99.90;;;;;;4969716;28;20392;-60
2022/07/16 04:27:43;;;;;;;2.90;1.45;;;12.70;99.90;;;;;;4971827;28;20033;-56
2022/07/16 04:30:10;;;;;;;2.65;1.20;;;12.70;99.90;;;;;;4971307;28;20047;-58
2022/07/16 04:32:40;;;;;;;6.28;1.85;;;12.70;99.90;;;;;;4972328;28;20065;-59
2022/07/16 04:35:07;;;;;;;4.07;1.50;;;12.60;99.90;;;;;;4963885;28;20054;-59
2022/07/16 04:37:32;;;;;;;3.90;1.50;;;12.70;99.90;;;;;;4965973;28;20034;-60
2022/07/16 04:39:58;;;;;;;8.15;1.67;;;12.70;99.90;;;;;;4973618;28;20037;-59
2022/07/16 04:42:24;;;;;;;3.63;1.70;;;12.70;99.90;;;;;;4974246;28;20043;-60
2022/07/16 04:44:49;;;;;;;1.95;1.20;;;12.60;99.90;;;;;;4974180;28;20030;-59
2022/07/16 04:47:15;;;;;;;4.25;1.30;;;12.70;99.90;;;;;;4974661;28;20030;-61
2022/07/16 04:49:41;;;;;;;4.13;1.52;;;12.70;99.90;;;;;;4973593;28;20034;-60
2022/07/16 04:52:07;;;;;;;2.55;1.60;;;12.80;99.90;;;;;;4974398;28;20015;-60
2022/07/16 04:54:33;;;;;;;3.28;1.58;;;12.80;99.90;;;;;;4971864;28;20122;-59
2022/07/16 04:56:59;;;;;;;2.78;1.42;;;12.90;99.90;;;;;;4973425;28;20485;-59
2022/07/16 04:59:25;;;;;;;6.45;1.60;;;13.00;99.90;;;;;;4967408;28;20169;-59
2022/07/16 05:01:50;;;;;;;5.35;1.38;;;13.20;99.90;;;;;;4973639;28;20109;-59
2022/07/16 05:04:16;;;;;;;3.20;1.35;;;13.20;99.90;;;;;;4973806;28;20106;-60
2022/07/16 05:06:42;;;;;;;2.55;1.30;;;13.30;99.90;;;;;;4973199;28;20031;-59
2022/07/16 05:09:07;;;;;;;3.55;1.58;;;13.40;99.90;;;;;;4972434;28;20026;-59
2022/07/16 05:11:33;;;;;;;5.78;1.58;;;13.50;99.90;;;;;;4974914;28;20702;-60
2022/07/16 05:13:59;;;;;;;6.07;2.20;;;13.70;99.90;;;;;;4974567;28;20139;-59
2022/07/16 05:16:25;;;;;;;4.93;1.20;;;13.80;99.90;;;;;;4971239;28;20381;-59
2022/07/16 05:18:51;;;;;;;4.40;1.48;;;13.90;99.90;;;;;;4975121;28;20019;-58
2022/07/16 05:21:17;;;;;;;4.90;1.20;;;14.00;99.90;;;;;;4973165;28;20038;-61
2022/07/16 05:23:43;;;;;;;4.38;1.27;;;14.20;99.90;;;;;;4973086;28;20027;-60
2022/07/16 05:26:09;;;;;;;1.92;1.35;;;14.50;99.90;;;;;;4971994;28;20034;-59
2022/07/16 05:28:35;;;;;;;6.00;1.55;;;14.70;99.90;;;;;;4974089;28;20508;-58
2022/07/16 05:31:00;;;;;;;4.55;2.05;;;14.80;99.90;;;;;;4975041;28;20165;-58
2022/07/16 05:33:26;;;;;;;3.72;1.70;;;14.70;99.90;;;;;;4974955;28;20524;-59
2022/07/16 05:35:52;;;;;;;4.95;1.73;;;14.70;99.90;;;;;;4974142;28;20110;-59
2022/07/16 05:38:17;;;;;;;5.93;1.80;;;14.80;99.90;;;;;;4974103;28;20031;-60
2022/07/16 05:40:44;;;;;;;3.88;1.90;;;14.90;99.90;;;;;;4974716;28;20023;-58
2022/07/16 05:43:10;;;;;;;7.10;1.90;;;15.00;99.90;;;;;;4973909;28;20058;-59
2022/07/16 05:45:36;;;;;;;6.80;1.63;;;15.00;99.90;;;;;;4972978;28;20389;-57
2022/07/16 05:48:02;;;;;;;6.78;1.58;;;15.00;99.90;;;;;;4972953;28;20038;-59
2022/07/16 05:50:28;;;;;;;6.85;1.65;;;15.10;99.90;;;;;;4973656;28;20059;-59
2022/07/16 05:52:53;;;;;;;4.95;1.60;;;15.20;99.90;;;;;;4974524;28;20054;-58
2022/07/16 05:55:19;;;;;;;3.67;1.50;;;15.40;99.90;;;;;;4973067;28;20035;-60
2022/07/16 05:57:45;;;;;;;2.35;1.33;;;15.60;99.90;;;;;;4974218;28;20516;-58
2022/07/16 06:00:12;;;;;;;4.90;2.00;;;15.70;99.90;;;;;;4972837;28;20400;-58
2022/07/16 06:02:38;;;;;;;6.00;2.03;;;15.90;99.90;;;;;;4972032;28;20026;-60
2022/07/16 06:05:04;;;;;;;5.60;2.00;;;16.10;99.90;;;;;;4973530;28;20121;-59
2022/07/16 06:07:30;;;;;;;9.50;1.95;;;16.20;99.90;;;;;;4973424;28;20109;-59
2022/07/16 06:09:55;;;;;;;7.53;2.22;;;16.50;99.90;;;;;;4974102;28;20070;-60
2022/07/16 06:12:21;;;;;;;9.30;2.50;;;17.00;99.90;;;;;;4970876;28;20548;-60
2022/07/16 06:14:47;;;;;;;5.45;1.92;;;17.40;99.90;;;;;;4972548;28;20046;-57
2022/07/16 06:17:13;;;;;;;5.93;2.13;;;17.40;99.90;;;;;;4970572;28;20019;-58
2022/07/16 06:19:42;;;;;;;6.88;2.13;;;17.20;99.90;;;;;;4972883;28;20061;-62
2022/07/16 06:22:09;;;;;;;8.57;2.00;;;17.20;99.90;;;;;;4973834;28;20030;-59
2022/07/16 06:24:34;;;;;;;11.50;3.13;;;17.20;99.90;;;;;;4971399;28;20122;-60
2022/07/16 06:27:00;;;;;;;8.50;1.90;;;17.00;99.90;;;;;;4971158;28;20118;-58
2022/07/16 06:29:25;;;;;;;3.00;1.75;;;17.00;99.90;;;;;;4973823;28;20461;-61
2022/07/16 06:31:51;;;;;;;5.57;2.33;;;17.10;99.90;;;;;;4971560;28;20150;-61
2022/07/16 06:34:17;;;;;;;6.07;1.90;;;17.30;99.90;;;;;;4972325;28;20037;-61
2022/07/16 06:36:42;;;;;;;8.48;2.08;;;17.60;99.90;;;;;;4972973;28;20022;-59
2022/07/16 06:39:08;;;;;;;6.32;1.95;;;17.70;99.90;;;;;;4973411;28;20409;-60
2022/07/16 06:41:38;;;;;;;3.55;2.00;;;17.80;99.90;;;;;;4973438;28;20034;-57
2022/07/16 06:44:09;;;;;;;8.60;2.10;;;17.80;99.90;;;;;;4973562;28;20015;-60
2022/07/16 06:46:35;;;;;;;7.47;2.28;;;18.00;99.90;;;;;;4972499;28;20053;-58
2022/07/16 06:49:01;;;;;;;6.93;2.28;;;18.10;99.50;;;;;;4969799;28;20118;-58
2022/07/16 06:51:27;;;;;;;5.90;2.30;;;18.00;98.80;;;;;;4971367;28;20181;-60
2022/07/16 06:53:53;;;;;;;6.85;2.20;;;18.00;99.20;;;;;;4973478;28;20093;-58
2022/07/16 06:56:19;;;;;;;4.63;2.40;;;17.90;99.10;;;;;;4970949;28;20400;-59
2022/07/16 06:58:44;;;;;;;5.55;2.40;;;17.80;99.40;;;;;;4971382;28;20085;-60
2022/07/16 07:01:10;;;;;;;5.53;2.25;;;17.90;99.60;;;;;;4941821;28;20055;-60
2022/07/16 07:03:40;;;;;;;9.18;2.40;;;18.00;99.50;;;;;;4971598;28;20481;-58
2022/07/16 07:06:06;;;;;;;4.82;2.75;;;18.10;98.60;;;;;;4967816;28;20026;-58
2022/07/16 07:08:32;;;;;;;5.80;2.60;;;18.10;98.30;;;;;;4971309;28;20038;-60
2022/07/16 07:10:59;;;;;;;4.97;2.70;;;18.00;98.20;;;;;;4969455;28;20019;-60
2022/07/16 07:13:26;;;;;;;5.45;2.38;;;17.80;99.10;;;;;;4971408;28;20034;-60
2022/07/16 07:15:52;;;;;;;7.43;3.15;;;17.70;99.00;;;;;;4970815;28;20102;-57
2022/07/16 07:18:18;;;;;;;6.70;2.25;;;17.60;99.60;;;;;;4969895;28;20119;-58
2022/07/16 07:20:44;;;;;;;7.95;2.40;;;17.60;99.50;;;;;;4972456;28;20519;-59
2022/07/16 07:23:10;;;;;;;5.68;2.63;;;17.60;99.50;;;;;;4972079;28;20089;-56
2022/07/16 07:25:37;;;;;;;5.32;2.28;;;17.60;99.80;;;;;;4963902;28;20106;-58
2022/07/16 07:28:02;;;;;;;9.93;2.70;;;17.80;99.70;;;;;;4971712;28;20527;-57
2022/07/16 07:30:28;;;;;;;8.35;2.22;;;18.20;99.40;;;;;;4970391;28;20031;-59
2022/07/16 07:32:54;;;;;;;6.03;2.50;;;18.60;98.10;;;;;;4978389;28;20033;-58
2022/07/16 07:35:20;;;;;;;6.15;2.58;;;18.80;98.10;;;;;;4987507;28;20121;-59
2022/07/16 07:37:45;;;;;;;5.45;1.85;;;20.10;96.90;;;;;;4970950;28;20030;-59
2022/07/16 07:40:11;;;;;;;9.90;2.58;;;21.70;93.70;;;;;;4971833;28;20023;-59
2022/07/16 07:42:37;;;;;;;7.82;2.15;;;23.30;91.50;;;;;;4963490;28;20043;-56
2022/07/16 07:45:04;;;;;;;11.65;2.10;;;24.40;87.60;;;;;;4971617;28;20508;-60
2022/07/16 07:47:30;;;;;;;7.93;2.50;;;25.90;84.70;;;;;;4971304;28;20046;-60
2022/07/16 07:49:56;;;;;;;9.27;2.30;;;26.20;79.10;;;;;;4971329;28;20019;-57
2022/07/16 07:52:22;;;;;;;7.78;2.60;;;26.20;77.60;;;;;;4968014;28;20022;-60
2022/07/16 07:54:47;;;;;;;4.43;2.15;;;26.30;76.20;;;;;;4970166;28;20041;-61
2022/07/16 07:57:13;;;;;;;5.35;2.53;;;26.60;76.20;;;;;;4968688;28;20027;-59
2022/07/16 07:59:39;;;;;;;4.95;2.17;;;26.80;75.30;;;;;;4970022;28;20027;-60
2022/07/16 08:02:05;;;;;;;9.15;2.80;;;27.30;76.60;;;;;;4960884;28;20055;-55
2022/07/16 08:04:33;;;;;;;9.23;2.50;;;27.50;74.70;;;;;;4969453;28;20060;-58
2022/07/16 08:06:59;;;;;;;6.80;2.47;;;27.80;73.90;;;;;;4968395;28;20023;-60
2022/07/16 08:09:25;;;;;;;8.43;2.95;;;27.70;72.50;;;;;;4968124;28;20025;-60
2022/07/16 08:11:50;;;;;;;5.15;3.45;;;27.60;73.30;;;;;;4969766;28;20110;-56
2022/07/16 08:14:16;;;;;;;7.03;3.25;;;27.60;72.40;;;;;;4965484;28;20058;-54
2022/07/16 08:16:42;;;;;;;9.63;4.13;;;28.10;72.00;;;;;;4969945;28;20077;-54
2022/07/16 08:19:09;;;;;;;6.95;3.50;;;27.00;72.90;;;;;;4968937;28;20074;-59
2022/07/16 08:21:35;;;;;;;8.25;3.47;;;27.80;72.30;;;;;;4970575;28;20117;-60
2022/07/16 08:26:45;;;;;;;9.60;3.42;;;28.10;69.50;;;;;;4964521;28;20397;-60
2022/07/16 08:29:11;;;;;;;8.85;3.90;;;27.90;71.90;;;;;;4971859;28;20050;-55
2022/07/16 08:31:36;;;;;;;5.53;3.30;;;29.00;71.20;;;;;;4968442;28;20023;-62
2022/07/16 08:34:02;;;;;;;10.02;3.22;;;29.20;68.50;;;;;;4969524;28;20034;-59
2022/07/16 08:36:27;;;;;;;8.32;3.10;;;29.60;69.00;;;;;;4968605;28;20035;-61
2022/07/16 08:38:53;;;;;;;12.75;3.55;;;29.60;67.40;;;;;;4968636;28;20121;-61
2022/07/16 08:41:20;;;;;;;5.80;3.45;;;29.40;67.60;;;;;;4968823;28;20109;-61
2022/07/16 08:43:46;;;;;;;7.28;3.13;;;28.50;69.10;;;;;;4970005;28;20034;-63
2022/07/16 08:46:14;;;;;;;6.70;3.70;;;28.20;70.00;;;;;;4967669;28;20034;-61
2022/07/16 08:48:41;;;;;;;12.18;3.17;;;27.50;69.20;;;;;;4969154;28;20405;-61
2022/07/16 08:51:12;;;;;;;7.47;3.13;;;27.30;72.00;;;;;;4969898;28;20019;-61
2022/07/16 08:53:40;;;;;;;7.05;3.40;;;27.30;72.60;;;;;;4962905;28;20019;-62
2022/07/16 08:56:06;;;;;;;5.25;3.42;;;26.90;72.90;;;;;;4970849;28;20042;-62
2022/07/16 08:58:32;;;;;;;6.38;3.08;;;26.80;73.00;;;;;;4968592;28;20050;-60
2022/07/16 09:00:58;;;;;;;9.88;2.92;;;27.10;72.10;;;;;;4955853;28;20046;-60
2022/07/16 09:03:24;;;;;;;7.10;3.65;;;27.60;71.00;;;;;;4970281;28;20077;-62
2022/07/16 09:05:50;;;;;;;7.60;3.38;;;27.80;69.40;;;;;;4967231;28;20153;-62
2022/07/16 09:08:17;;;;;;;7.28;2.78;;;28.60;68.10;;;;;;4969677;28;20030;-61
2022/07/16 09:10:42;;;;;;;4.78;2.38;;;28.40;68.50;;;;;;4970255;28;20516;-62
2022/07/16 09:13:10;;;;;;;4.53;2.60;;;28.10;69.00;;;;;;4964581;28;20034;-60
2022/07/16 09:15:40;;;;;;;7.57;2.92;;;27.10;71.80;;;;;;4966422;28;20034;-61
2022/07/16 09:18:09;;;;;;;6.32;2.70;;;26.20;73.60;;;;;;4968810;28;20035;-60
2022/07/16 09:20:36;;;;;;;6.25;3.40;;;25.50;74.30;;;;;;4971528;28;20589;-61
2022/07/16 09:23:02;;;;;;;9.93;2.75;;;24.70;76.00;;;;;;4975192;28;20030;-57
2022/07/16 09:25:28;;;;;;;6.25;3.67;;;24.20;77.60;;;;;;4973211;28;20046;-56
2022/07/16 09:28:00;;;;;;;4.60;2.60;;;23.60;79.40;;;;;;4969109;28;20033;-61
2022/07/16 09:30:27;;;;;;;9.02;3.15;;;23.40;80.40;;;;;;4970485;28;20022;-59
2022/07/16 09:32:54;;;;;;;5.53;3.90;;;23.40;80.30;;;;;;4973988;28;20546;-60
2022/07/16 09:35:21;;;;;;;7.65;4.00;;;23.10;81.80;;;;;;4973925;28;20126;-59
2022/07/16 09:37:52;;;;;;;11.55;3.70;;;22.90;82.00;;;;;;4972221;28;20045;-59
2022/07/16 09:40:29;;;;;;;6.45;3.40;;;22.80;82.90;;;;;;4972788;28;20031;-61
2022/07/16 09:42:55;;;;;;;5.30;3.50;;;22.50;84.10;;;;;;4988756;28;20042;-62
2022/07/16 09:45:21;;;;;;;6.10;3.38;;;22.30;84.90;;;;;;4972653;28;20043;-60
2022/07/16 09:47:47;;;;;;;9.10;3.72;;;22.10;87.40;;;;;;4970130;28;20054;-60
2022/07/16 09:50:13;;;;;;;6.22;3.72;;;21.80;87.10;;;;;;4974015;28;20501;-58
2022/07/16 09:52:39;;;;;;;5.03;3.53;;;21.80;87.60;;;;;;4979514;28;20019;-59
2022/07/16 09:57:37;;;;;;;4.95;3.58;;;21.80;88.50;;;;;;5024796;28;20060;-59
2022/07/16 10:00:08;;;;;;;9.77;3.50;;;22.20;87.60;;;;;;5023161;28;20121;-59
2022/07/16 10:02:34;;;;;;;6.18;2.47;;;22.50;85.80;;;;;;5009021;28;20438;-59
2022/07/16 10:05:00;;;;;;;4.35;2.33;;;22.50;86.30;;;;;;5032849;28;20036;-59
2022/07/16 10:07:26;;;;;;;3.03;2.00;;;22.60;84.50;;;;;;5006982;28;20026;-59
2022/07/16 10:09:52;;;;;;;2.55;1.80;;;22.60;84.90;;;;;;5010248;28;20567;-59
2022/07/16 10:12:20;;;;;;;2.70;1.50;;;22.60;82.60;;;;;;5003991;28;20031;-59
2022/07/16 10:14:52;;;;;;;7.65;1.88;;;22.80;81.00;;;;;;5006655;28;20022;-59
2022/07/16 10:17:38;;;;;;;5.75;1.50;;;22.80;82.00;;;;;;5007125;28;20514;-57
2022/07/16 10:20:11;;;;;;;2.20;1.35;;;23.10;80.60;;;;;;5006037;28;20054;-60
2022/07/16 10:22:42;;;;;;;4.72;1.50;;;23.70;78.90;;;;;;5011850;28;20116;-58
2022/07/16 10:25:16;;;;;;;2.53;1.23;;;24.60;78.10;;;;;;5009659;28;20171;-58
2022/07/16 10:27:42;;;;;;;2.15;1.10;;;24.70;73.40;;;;;;5006766;28;20488;-57
2022/07/16 10:30:24;;;;;;;2.50;1.10;;;24.90;73.20;;;;;;5010597;28;20037;-58
2022/07/16 10:33:20;;;;;;;2.60;1.10;;;25.30;74.60;;;;;;5004642;28;20033;-60
2022/07/16 10:35:46;;;;;;;4.18;0.90;;;25.20;71.70;;;;;;5010682;28;20396;-58
2022/07/16 10:38:21;;;;;;;2.33;1.10;;;24.80;70.80;;;;;;5009781;28;20087;-59
2022/07/16 10:41:08;;;;;;;1.80;0.73;;;24.60;71.30;;;;;;5009648;28;20109;-59
2022/07/16 10:43:34;;;;;;;0.68;0.68;;;24.40;71.90;;;;;;5010681;28;20034;-55
2022/07/16 10:46:06;;;;;;;2.35;0.90;;;23.90;73.80;;;;;;5011564;28;20105;-58
2022/07/16 10:48:37;;;;;;;3.08;0.80;;;24.10;70.80;;;;;;5002728;28;20030;-59
2022/07/16 10:51:23;;;;;;;4.85;0.77;;;24.20;70.40;;;;;;4990899;28;20041;-59
2022/07/16 10:53:57;;;;;;;1.20;0.85;;;24.10;70.80;;;;;;5015796;28;20364;-60
2022/07/16 10:56:40;;;;;;;2.70;0.63;;;24.50;71.50;;;;;;5011969;28;20038;-59
2022/07/16 10:59:11;;;;;;;2.58;0.93;;;24.80;71.30;;;;;;5013294;28;20025;-60
2022/07/16 11:01:39;;;;;;;2.22;1.00;;;24.80;70.80;;;;;;4992596;28;20057;-60
2022/07/16 11:04:06;;;;;;;1.65;0.90;;;25.00;70.70;;;;;;5004684;28;20124;-60
2022/07/16 11:06:32;;;;;;;1.92;0.95;;;25.50;69.10;;;;;;5007107;28;20053;-60
2022/07/16 11:09:00;;;;;;;2.30;0.90;;;26.00;67.80;;;;;;5010414;28;20068;-59
2022/07/16 11:11:34;;;;;;;4.43;1.00;;;25.80;67.60;;;;;;5014316;28;20029;-60
2022/07/16 11:14:00;;;;;;;3.03;0.90;;;25.40;68.40;;;;;;5025747;28;20447;-59
2022/07/16 11:16:26;;;;;;;2.00;1.10;;;25.20;69.40;;;;;;5010553;28;20052;-58
2022/07/16 11:18:53;;;;;;;2.88;1.05;;;24.80;67.40;;;;;;4998181;28;20034;-59
2022/07/16 11:21:18;;;;;;;2.35;1.40;;;24.70;69.10;;;;;;5015974;28;20044;-60
2022/07/16 11:23:54;;;;;;;2.67;1.33;;;24.80;69.10;;;;;;4997699;28;20034;-60
2022/07/16 11:26:21;;;;;;;2.63;1.50;;;24.60;68.50;;;;;;5010364;28;20448;-59
2022/07/16 11:28:51;;;;;;;5.05;1.45;;;24.30;69.70;;;;;;5004939;28;20048;-59
2022/07/16 11:31:32;;;;;;;4.18;1.30;;;24.00;70.10;;;;;;5012914;28;20049;-59
2022/07/16 11:34:04;;;;;;;3.17;1.30;;;23.60;71.30;;;;;;5014938;28;20033;-60
2022/07/16 11:36:36;;;;;;;11.23;1.42;;;23.40;71.80;;;;;;5003858;28;20027;-60
2022/07/16 11:39:02;;;;;;;2.85;1.10;;;23.60;71.50;;;;;;5013859;28;20108;-60
2022/07/16 11:41:28;;;;;;;8.02;0.82;;;24.20;71.50;;;;;;5004620;28;20429;-60
2022/07/16 11:43:55;;;;;;;2.50;0.90;;;24.60;69.80;;;;;;5002448;28;20021;-60
2022/07/16 11:46:28;;;;;;;2.00;0.80;;;25.00;69.70;;;;;;5012935;28;20034;-60
2022/07/16 11:48:54;;;;;;;;;;;25.20;68.30;;;;;;5010252;28;20110;-60
2022/07/16 11:51:20;;;;;;;3.15;1.15;;;25.20;67.50;;;;;;5000867;28;19937;-60
2022/07/16 11:53:51;;;;;;;2.13;1.27;;;24.80;68.10;;;;;;4988421;28;20096;-60
2022/07/16 11:56:31;;;;;;;2.33;1.73;;;24.20;68.30;;;;;;5001695;28;20034;-60
2022/07/16 11:58:56;;;;;;;4.05;1.23;;;23.60;69.30;;;;;;5015149;28;20570;-60
2022/07/16 12:01:24;;;;;;;4.30;1.15;;;23.40;71.10;;;;;;4984728;28;20054;-60
2022/07/16 12:03:55;;;;;;;2.55;1.20;;;23.30;70.90;;;;;;5007607;28;20057;-60
2022/07/16 12:06:21;;;;;;;3.65;1.75;;;23.30;71.10;;;;;;5007631;28;20026;-59
2022/07/16 12:08:56;;;;;;;3.70;1.05;;;23.30;70.00;;;;;;5009833;28;20080;-60
2022/07/16 12:11:30;;;;;;;2.67;1.17;;;23.50;71.40;;;;;;4994886;28;20029;-60
2022/07/16 12:13:56;;;;;;;2.72;1.00;;;23.90;69.70;;;;;;5006298;28;20565;-60
2022/07/16 12:16:23;;;;;;;2.17;0.98;;;24.10;69.00;;;;;;5007414;28;20627;-59
2022/07/16 12:19:14;;;;;;;2.83;1.02;;;24.40;68.40;;;;;;5003254;28;20057;-60
2022/07/16 12:21:40;;;;;;;2.53;0.95;;;24.70;67.50;;;;;;5007328;28;20022;-60
2022/07/16 12:24:08;;;;;;;3.28;1.33;;;24.70;68.50;;;;;;4998675;28;20133;-60
2022/07/16 12:26:39;;;;;;;3.92;0.93;;;24.90;65.50;;;;;;5002666;28;20097;-59
2022/07/16 12:29:07;;;;;;;2.40;1.17;;;25.10;66.00;;;;;;4991033;28;20046;-59
2022/07/16 12:31:35;;;;;;;2.40;1.02;;;25.10;64.70;;;;;;5006465;28;20050;-60
2022/07/16 12:34:02;;;;;;;2.58;1.10;;;24.80;65.10;;;;;;5010318;28;20030;-59
2022/07/16 12:36:33;;;;;;;1.65;1.00;;;24.90;66.40;;;;;;5001897;28;20034;-60
2022/07/16 12:39:05;;;;;;;2.58;1.10;;;24.90;65.90;;;;;;5010386;28;20495;-60
2022/07/16 12:41:39;;;;;;;14.48;2.42;;;24.90;66.00;;;;;;5002293;28;20040;-59
2022/07/16 12:44:08;;;;;;;2.55;1.13;;;24.70;66.70;;;;;;5014080;28;20491;-60
2022/07/16 12:46:39;;;;;;;2.88;1.20;;;24.30;67.60;;;;;;5006699;28;20022;-60
2022/07/16 12:49:10;;;;;;;3.13;1.45;;;24.00;68.00;;;;;;5005307;28;20030;-59
2022/07/16 12:51:40;;;;;;;5.40;1.30;;;23.70;68.20;;;;;;4968025;28;20022;-59
2022/07/16 12:54:08;;;;;;;5.47;1.40;;;23.70;68.60;;;;;;5009572;28;20442;-60